sensor_id;sensor_type;location;lat;lon;timestamp;P1;durP1;ratioP1;P2;durP2;ratioP2
68140;SDS011;54941;52.220;104.306;2023-12-20T00:01:25;23.88;;;10.43;;
68140;SDS011;54941;52.220;104.306;2023-12-20T00:03:51;24.95;;;10.40;;
68140;SDS011;54941;52.220;104.306;2023-12-20T00:06:18;44.05;;;15.73;;
68140;SDS011;54941;52.220;104.306;2023-12-20T00:08:44;34.15;;;12.00;;
68140;SDS011;54941;52.220;104.306;2023-12-20T00:11:12;23.65;;;9.65;;
68140;SDS011;54941;52.220;104.306;2023-12-20T00:13:38;17.98;;;9.60;;
68140;SDS011;54941;52.220;104.306;2023-12-20T00:16:04;22.35;;;9.55;;
68140;SDS011;54941;52.220;104.306;2023-12-20T00:18:31;17.98;;;7.55;;
68140;SDS011;54941;52.220;104.306;2023-12-20T00:20:57;25.70;;;10.55;;
68140;SDS011;54941;52.220;104.306;2023-12-20T00:23:23;15.45;;;6.60;;
68140;SDS011;54941;52.220;104.306;2023-12-20T00:25:49;21.23;;;8.38;;
68140;SDS011;54941;52.220;104.306;2023-12-20T00:28:17;22.73;;;9.82;;
68140;SDS011;54941;52.220;104.306;2023-12-20T00:30:43;21.55;;;10.45;;
68140;SDS011;54941;52.220;104.306;2023-12-20T00:33:10;22.05;;;10.27;;
68140;SDS011;54941;52.220;104.306;2023-12-20T00:35:36;31.73;;;12.38;;
68140;SDS011;54941;52.220;104.306;2023-12-20T00:38:03;32.97;;;10.32;;
68140;SDS011;54941;52.220;104.306;2023-12-20T00:40:29;25.05;;;10.73;;
68140;SDS011;54941;52.220;104.306;2023-12-20T00:42:55;23.98;;;10.95;;
68140;SDS011;54941;52.220;104.306;2023-12-20T00:45:23;22.13;;;9.15;;
68140;SDS011;54941;52.220;104.306;2023-12-20T00:47:49;21.58;;;10.05;;
68140;SDS011;54941;52.220;104.306;2023-12-20T00:50:15;17.98;;;7.03;;
68140;SDS011;54941;52.220;104.306;2023-12-20T00:52:42;21.48;;;8.38;;
68140;SDS011;54941;52.220;104.306;2023-12-20T00:55:08;22.40;;;7.90;;
68140;SDS011;54941;52.220;104.306;2023-12-20T00:57:34;21.88;;;8.57;;
68140;SDS011;54941;52.220;104.306;2023-12-20T01:00:01;22.83;;;9.00;;
68140;SDS011;54941;52.220;104.306;2023-12-20T01:02:29;17.88;;;8.48;;
68140;SDS011;54941;52.220;104.306;2023-12-20T01:04:55;23.98;;;8.48;;
68140;SDS011;54941;52.220;104.306;2023-12-20T01:07:22;17.05;;;7.65;;
68140;SDS011;54941;52.220;104.306;2023-12-20T01:09:48;18.88;;;9.00;;
68140;SDS011;54941;52.220;104.306;2023-12-20T01:12:14;21.85;;;7.70;;
68140;SDS011;54941;52.220;104.306;2023-12-20T01:14:40;23.67;;;8.65;;
68140;SDS011;54941;52.220;104.306;2023-12-20T01:17:07;18.02;;;7.38;;
68140;SDS011;54941;52.220;104.306;2023-12-20T01:19:35;19.50;;;9.65;;
68140;SDS011;54941;52.220;104.306;2023-12-20T01:22:01;118.00;;;41.50;;
68140;SDS011;54941;52.220;104.306;2023-12-20T01:24:27;54.50;;;21.13;;
68140;SDS011;54941;52.220;104.306;2023-12-20T01:26:53;16.80;;;7.57;;
68140;SDS011;54941;52.220;104.306;2023-12-20T01:29:20;21.42;;;9.55;;
68140;SDS011;54941;52.220;104.306;2023-12-20T01:31:46;21.90;;;7.97;;
68140;SDS011;54941;52.220;104.306;2023-12-20T01:34:12;20.77;;;9.98;;
68140;SDS011;54941;52.220;104.306;2023-12-20T01:36:40;19.75;;;8.30;;
68140;SDS011;54941;52.220;104.306;2023-12-20T01:39:07;24.17;;;9.63;;
68140;SDS011;54941;52.220;104.306;2023-12-20T01:41:33;26.58;;;9.90;;
68140;SDS011;54941;52.220;104.306;2023-12-20T01:43:59;27.70;;;9.60;;
68140;SDS011;54941;52.220;104.306;2023-12-20T01:46:25;21.08;;;9.32;;
68140;SDS011;54941;52.220;104.306;2023-12-20T01:48:52;16.90;;;7.72;;
68140;SDS011;54941;52.220;104.306;2023-12-20T01:51:19;27.08;;;10.88;;
68140;SDS011;54941;52.220;104.306;2023-12-20T01:53:48;27.35;;;12.25;;
68140;SDS011;54941;52.220;104.306;2023-12-20T01:56:14;27.17;;;12.23;;
68140;SDS011;54941;52.220;104.306;2023-12-20T01:58:43;26.05;;;10.85;;
68140;SDS011;54941;52.220;104.306;2023-12-20T02:01:11;26.48;;;11.88;;
68140;SDS011;54941;52.220;104.306;2023-12-20T02:03:37;35.17;;;14.43;;
68140;SDS011;54941;52.220;104.306;2023-12-20T02:06:04;25.08;;;11.88;;
68140;SDS011;54941;52.220;104.306;2023-12-20T02:08:31;25.55;;;10.55;;
68140;SDS011;54941;52.220;104.306;2023-12-20T02:10:59;24.83;;;9.88;;
68140;SDS011;54941;52.220;104.306;2023-12-20T02:13:25;21.58;;;10.45;;
68140;SDS011;54941;52.220;104.306;2023-12-20T02:15:52;27.52;;;13.27;;
68140;SDS011;54941;52.220;104.306;2023-12-20T02:18:20;26.55;;;11.93;;
68140;SDS011;54941;52.220;104.306;2023-12-20T02:20:46;27.77;;;10.98;;
68140;SDS011;54941;52.220;104.306;2023-12-20T02:23:14;38.78;;;17.88;;
68140;SDS011;54941;52.220;104.306;2023-12-20T02:25:40;30.73;;;12.60;;
68140;SDS011;54941;52.220;104.306;2023-12-20T02:28:07;26.80;;;14.07;;
68140;SDS011;54941;52.220;104.306;2023-12-20T02:30:34;32.55;;;12.38;;
68140;SDS011;54941;52.220;104.306;2023-12-20T02:33:00;34.50;;;14.60;;
68140;SDS011;54941;52.220;104.306;2023-12-20T02:35:29;33.15;;;15.45;;
68140;SDS011;54941;52.220;104.306;2023-12-20T02:37:55;36.60;;;16.25;;
68140;SDS011;54941;52.220;104.306;2023-12-20T02:40:23;42.60;;;16.35;;
68140;SDS011;54941;52.220;104.306;2023-12-20T02:42:49;33.08;;;15.07;;
68140;SDS011;54941;52.220;104.306;2023-12-20T02:45:15;35.22;;;15.52;;
68140;SDS011;54941;52.220;104.306;2023-12-20T02:47:42;47.08;;;18.88;;
68140;SDS011;54941;52.220;104.306;2023-12-20T02:50:08;44.75;;;21.15;;
68140;SDS011;54941;52.220;104.306;2023-12-20T02:52:34;39.35;;;19.42;;
68140;SDS011;54941;52.220;104.306;2023-12-20T02:55:00;38.17;;;16.90;;
68140;SDS011;54941;52.220;104.306;2023-12-20T02:57:30;36.22;;;15.70;;
68140;SDS011;54941;52.220;104.306;2023-12-20T02:59:57;32.85;;;12.65;;
68140;SDS011;54941;52.220;104.306;2023-12-20T03:02:23;26.40;;;11.43;;
68140;SDS011;54941;52.220;104.306;2023-12-20T03:04:49;27.58;;;12.13;;
68140;SDS011;54941;52.220;104.306;2023-12-20T03:07:15;33.03;;;12.30;;
68140;SDS011;54941;52.220;104.306;2023-12-20T03:09:42;21.05;;;9.88;;
68140;SDS011;54941;52.220;104.306;2023-12-20T03:12:08;27.55;;;11.90;;
68140;SDS011;54941;52.220;104.306;2023-12-20T03:14:36;29.85;;;12.38;;
68140;SDS011;54941;52.220;104.306;2023-12-20T03:17:02;23.50;;;12.27;;
68140;SDS011;54941;52.220;104.306;2023-12-20T03:19:29;21.50;;;9.82;;
68140;SDS011;54941;52.220;104.306;2023-12-20T03:21:55;34.65;;;14.00;;
68140;SDS011;54941;52.220;104.306;2023-12-20T03:24:21;30.25;;;11.70;;
68140;SDS011;54941;52.220;104.306;2023-12-20T03:26:47;22.48;;;9.23;;
68140;SDS011;54941;52.220;104.306;2023-12-20T03:29:14;30.90;;;12.60;;
68140;SDS011;54941;52.220;104.306;2023-12-20T03:31:41;25.13;;;10.82;;
68140;SDS011;54941;52.220;104.306;2023-12-20T03:34:07;24.40;;;11.15;;
68140;SDS011;54941;52.220;104.306;2023-12-20T03:36:34;22.08;;;10.93;;
68140;SDS011;54941;52.220;104.306;2023-12-20T03:39:00;27.40;;;13.63;;
68140;SDS011;54941;52.220;104.306;2023-12-20T03:41:26;18.38;;;6.28;;
68140;SDS011;54941;52.220;104.306;2023-12-20T03:43:52;21.90;;;9.35;;
68140;SDS011;54941;52.220;104.306;2023-12-20T03:46:19;10.73;;;5.05;;
68140;SDS011;54941;52.220;104.306;2023-12-20T03:48:47;21.98;;;10.32;;
68140;SDS011;54941;52.220;104.306;2023-12-20T03:51:13;23.52;;;9.50;;
68140;SDS011;54941;52.220;104.306;2023-12-20T03:53:39;23.25;;;8.18;;
68140;SDS011;54941;52.220;104.306;2023-12-20T03:56:05;17.63;;;8.30;;
68140;SDS011;54941;52.220;104.306;2023-12-20T03:58:32;15.32;;;7.15;;
68140;SDS011;54941;52.220;104.306;2023-12-20T04:00:58;14.80;;;6.88;;
68140;SDS011;54941;52.220;104.306;2023-12-20T04:03:24;18.90;;;9.40;;
68140;SDS011;54941;52.220;104.306;2023-12-20T04:05:52;12.00;;;6.88;;
68140;SDS011;54941;52.220;104.306;2023-12-20T04:08:18;17.50;;;8.45;;
68140;SDS011;54941;52.220;104.306;2023-12-20T04:10:45;17.63;;;7.40;;
68140;SDS011;54941;52.220;104.306;2023-12-20T04:13:11;16.90;;;8.40;;
68140;SDS011;54941;52.220;104.306;2023-12-20T04:15:38;19.77;;;7.88;;
68140;SDS011;54941;52.220;104.306;2023-12-20T04:18:04;21.83;;;9.18;;
68140;SDS011;54941;52.220;104.306;2023-12-20T04:20:30;20.20;;;11.13;;
68140;SDS011;54941;52.220;104.306;2023-12-20T04:22:58;21.70;;;8.48;;
68140;SDS011;54941;52.220;104.306;2023-12-20T04:25:25;21.10;;;9.15;;
68140;SDS011;54941;52.220;104.306;2023-12-20T04:27:51;26.70;;;11.40;;
68140;SDS011;54941;52.220;104.306;2023-12-20T04:30:17;23.77;;;12.25;;
68140;SDS011;54941;52.220;104.306;2023-12-20T04:32:43;17.92;;;9.65;;
68140;SDS011;54941;52.220;104.306;2023-12-20T04:35:10;28.38;;;14.23;;
68140;SDS011;54941;52.220;104.306;2023-12-20T04:37:36;21.48;;;8.55;;
68140;SDS011;54941;52.220;104.306;2023-12-20T04:40:04;20.02;;;7.95;;
68140;SDS011;54941;52.220;104.306;2023-12-20T04:42:32;16.10;;;7.65;;
68140;SDS011;54941;52.220;104.306;2023-12-20T04:44:58;21.08;;;10.55;;
68140;SDS011;54941;52.220;104.306;2023-12-20T04:47:24;16.85;;;8.68;;
68140;SDS011;54941;52.220;104.306;2023-12-20T04:49:51;22.67;;;10.27;;
68140;SDS011;54941;52.220;104.306;2023-12-20T04:52:17;20.30;;;9.73;;
68140;SDS011;54941;52.220;104.306;2023-12-20T04:54:43;13.60;;;7.78;;
68140;SDS011;54941;52.220;104.306;2023-12-20T04:57:11;26.92;;;12.65;;
68140;SDS011;54941;52.220;104.306;2023-12-20T04:59:37;24.40;;;10.10;;
68140;SDS011;54941;52.220;104.306;2023-12-20T05:02:04;28.75;;;11.68;;
68140;SDS011;54941;52.220;104.306;2023-12-20T05:04:30;16.77;;;7.53;;
68140;SDS011;54941;52.220;104.306;2023-12-20T05:06:56;19.00;;;8.57;;
68140;SDS011;54941;52.220;104.306;2023-12-20T05:09:22;22.08;;;10.68;;
68140;SDS011;54941;52.220;104.306;2023-12-20T05:11:48;16.27;;;7.20;;
68140;SDS011;54941;52.220;104.306;2023-12-20T05:14:16;29.77;;;12.07;;
68140;SDS011;54941;52.220;104.306;2023-12-20T05:16:43;31.52;;;12.80;;
68140;SDS011;54941;52.220;104.306;2023-12-20T05:19:09;37.45;;;18.55;;
68140;SDS011;54941;52.220;104.306;2023-12-20T05:21:35;35.03;;;13.45;;
68140;SDS011;54941;52.220;104.306;2023-12-20T05:24:01;37.90;;;16.88;;
68140;SDS011;54941;52.220;104.306;2023-12-20T05:26:28;25.45;;;12.35;;
68140;SDS011;54941;52.220;104.306;2023-12-20T05:28:54;34.50;;;17.83;;
68140;SDS011;54941;52.220;104.306;2023-12-20T05:31:22;31.95;;;17.67;;
68140;SDS011;54941;52.220;104.306;2023-12-20T05:33:48;38.95;;;16.23;;
68140;SDS011;54941;52.220;104.306;2023-12-20T05:36:14;54.63;;;22.13;;
68140;SDS011;54941;52.220;104.306;2023-12-20T05:38:41;41.47;;;17.60;;
68140;SDS011;54941;52.220;104.306;2023-12-20T05:41:07;43.78;;;19.65;;
68140;SDS011;54941;52.220;104.306;2023-12-20T05:43:33;36.40;;;16.73;;
68140;SDS011;54941;52.220;104.306;2023-12-20T05:45:59;42.03;;;19.08;;
68140;SDS011;54941;52.220;104.306;2023-12-20T05:48:28;47.88;;;20.77;;
68140;SDS011;54941;52.220;104.306;2023-12-20T05:50:54;40.67;;;18.45;;
68140;SDS011;54941;52.220;104.306;2023-12-20T05:53:24;48.75;;;20.35;;
68140;SDS011;54941;52.220;104.306;2023-12-20T05:55:50;60.90;;;28.90;;
68140;SDS011;54941;52.220;104.306;2023-12-20T05:58:17;51.17;;;22.05;;
68140;SDS011;54941;52.220;104.306;2023-12-20T06:00:46;51.45;;;20.73;;
68140;SDS011;54941;52.220;104.306;2023-12-20T06:03:12;44.38;;;19.98;;
68140;SDS011;54941;52.220;104.306;2023-12-20T06:05:40;45.22;;;19.73;;
68140;SDS011;54941;52.220;104.306;2023-12-20T06:08:06;52.63;;;25.90;;
68140;SDS011;54941;52.220;104.306;2023-12-20T06:10:33;54.30;;;23.83;;
68140;SDS011;54941;52.220;104.306;2023-12-20T06:12:59;44.53;;;17.20;;
68140;SDS011;54941;52.220;104.306;2023-12-20T06:15:25;39.35;;;17.42;;
68140;SDS011;54941;52.220;104.306;2023-12-20T06:17:51;23.48;;;10.10;;
68140;SDS011;54941;52.220;104.306;2023-12-20T06:20:18;34.65;;;16.63;;
68140;SDS011;54941;52.220;104.306;2023-12-20T06:22:45;37.17;;;16.23;;
68140;SDS011;54941;52.220;104.306;2023-12-20T06:25:15;33.60;;;15.40;;
68140;SDS011;54941;52.220;104.306;2023-12-20T06:27:41;45.90;;;18.50;;
68140;SDS011;54941;52.220;104.306;2023-12-20T06:30:08;40.83;;;19.13;;
68140;SDS011;54941;52.220;104.306;2023-12-20T06:32:34;28.88;;;12.13;;
68140;SDS011;54941;52.220;104.306;2023-12-20T06:35:00;31.17;;;11.95;;
68140;SDS011;54941;52.220;104.306;2023-12-20T06:37:27;42.78;;;18.75;;
68140;SDS011;54941;52.220;104.306;2023-12-20T06:39:55;29.02;;;13.07;;
68140;SDS011;54941;52.220;104.306;2023-12-20T06:42:21;23.80;;;8.57;;
68140;SDS011;54941;52.220;104.306;2023-12-20T06:44:48;25.00;;;11.52;;
68140;SDS011;54941;52.220;104.306;2023-12-20T06:47:14;23.35;;;11.77;;
68140;SDS011;54941;52.220;104.306;2023-12-20T06:49:40;18.20;;;7.47;;
68140;SDS011;54941;52.220;104.306;2023-12-20T06:52:07;17.67;;;8.63;;
68140;SDS011;54941;52.220;104.306;2023-12-20T06:54:33;19.10;;;7.72;;
68140;SDS011;54941;52.220;104.306;2023-12-20T06:57:01;16.13;;;7.15;;
68140;SDS011;54941;52.220;104.306;2023-12-20T06:59:27;17.60;;;7.80;;
68140;SDS011;54941;52.220;104.306;2023-12-20T07:01:54;21.13;;;8.95;;
68140;SDS011;54941;52.220;104.306;2023-12-20T07:04:20;12.45;;;5.95;;
68140;SDS011;54941;52.220;104.306;2023-12-20T07:06:46;19.80;;;7.80;;
68140;SDS011;54941;52.220;104.306;2023-12-20T07:09:13;19.33;;;6.78;;
68140;SDS011;54941;52.220;104.306;2023-12-20T07:11:39;17.63;;;9.20;;
68140;SDS011;54941;52.220;104.306;2023-12-20T07:14:07;17.35;;;7.55;;
68140;SDS011;54941;52.220;104.306;2023-12-20T07:16:33;20.42;;;8.60;;
68140;SDS011;54941;52.220;104.306;2023-12-20T07:18:59;14.38;;;6.25;;
68140;SDS011;54941;52.220;104.306;2023-12-20T07:21:25;14.50;;;7.35;;
68140;SDS011;54941;52.220;104.306;2023-12-20T07:23:52;17.05;;;7.88;;
68140;SDS011;54941;52.220;104.306;2023-12-20T07:26:18;21.88;;;9.95;;
68140;SDS011;54941;52.220;104.306;2023-12-20T07:28:44;28.75;;;11.52;;
68140;SDS011;54941;52.220;104.306;2023-12-20T07:31:12;30.33;;;14.50;;
68140;SDS011;54941;52.220;104.306;2023-12-20T07:33:40;42.22;;;16.38;;
68140;SDS011;54941;52.220;104.306;2023-12-20T07:36:07;42.05;;;16.02;;
68140;SDS011;54941;52.220;104.306;2023-12-20T07:38:33;44.25;;;17.00;;
68140;SDS011;54941;52.220;104.306;2023-12-20T07:40:59;29.50;;;12.32;;
68140;SDS011;54941;52.220;104.306;2023-12-20T07:43:26;20.13;;;8.13;;
68140;SDS011;54941;52.220;104.306;2023-12-20T07:45:52;19.73;;;9.35;;
68140;SDS011;54941;52.220;104.306;2023-12-20T07:48:20;25.95;;;9.50;;
68140;SDS011;54941;52.220;104.306;2023-12-20T07:50:46;31.08;;;12.00;;
68140;SDS011;54941;52.220;104.306;2023-12-20T07:53:12;49.13;;;19.45;;
68140;SDS011;54941;52.220;104.306;2023-12-20T07:55:39;43.13;;;20.02;;
68140;SDS011;54941;52.220;104.306;2023-12-20T07:58:05;39.63;;;14.93;;
68140;SDS011;54941;52.220;104.306;2023-12-20T08:00:31;41.88;;;16.25;;
68140;SDS011;54941;52.220;104.306;2023-12-20T08:02:57;27.45;;;12.27;;
68140;SDS011;54941;52.220;104.306;2023-12-20T08:05:25;33.58;;;13.45;;
68140;SDS011;54941;52.220;104.306;2023-12-20T08:07:51;29.05;;;12.65;;
68140;SDS011;54941;52.220;104.306;2023-12-20T08:10:18;30.75;;;12.15;;
68140;SDS011;54941;52.220;104.306;2023-12-20T08:12:44;30.65;;;13.95;;
68140;SDS011;54941;52.220;104.306;2023-12-20T08:15:10;27.95;;;11.93;;
68140;SDS011;54941;52.220;104.306;2023-12-20T08:17:37;28.98;;;13.27;;
68140;SDS011;54941;52.220;104.306;2023-12-20T08:20:03;29.90;;;12.50;;
68140;SDS011;54941;52.220;104.306;2023-12-20T08:22:32;25.10;;;11.35;;
68140;SDS011;54941;52.220;104.306;2023-12-20T08:24:58;28.23;;;12.95;;
68140;SDS011;54941;52.220;104.306;2023-12-20T08:27:24;29.00;;;14.60;;
68140;SDS011;54941;52.220;104.306;2023-12-20T08:29:51;36.22;;;17.90;;
68140;SDS011;54941;52.220;104.306;2023-12-20T08:32:17;32.92;;;12.07;;
68140;SDS011;54941;52.220;104.306;2023-12-20T08:34:43;30.33;;;13.85;;
68140;SDS011;54941;52.220;104.306;2023-12-20T08:37:09;27.73;;;13.57;;
68140;SDS011;54941;52.220;104.306;2023-12-20T08:39:37;24.90;;;13.20;;
68140;SDS011;54941;52.220;104.306;2023-12-20T08:42:04;26.70;;;11.98;;
68140;SDS011;54941;52.220;104.306;2023-12-20T08:44:30;34.10;;;13.88;;
68140;SDS011;54941;52.220;104.306;2023-12-20T08:46:56;31.10;;;11.77;;
68140;SDS011;54941;52.220;104.306;2023-12-20T08:49:23;31.33;;;14.57;;
68140;SDS011;54941;52.220;104.306;2023-12-20T08:51:49;30.50;;;14.25;;
68140;SDS011;54941;52.220;104.306;2023-12-20T08:54:15;29.27;;;13.30;;
68140;SDS011;54941;52.220;104.306;2023-12-20T08:56:43;30.40;;;13.93;;
68140;SDS011;54941;52.220;104.306;2023-12-20T08:59:09;28.10;;;13.48;;
68140;SDS011;54941;52.220;104.306;2023-12-20T09:01:35;23.52;;;10.90;;
68140;SDS011;54941;52.220;104.306;2023-12-20T09:04:02;25.75;;;10.82;;
68140;SDS011;54941;52.220;104.306;2023-12-20T09:06:28;33.85;;;13.63;;
68140;SDS011;54941;52.220;104.306;2023-12-20T09:08:54;28.67;;;12.85;;
68140;SDS011;54941;52.220;104.306;2023-12-20T09:11:21;24.23;;;10.43;;
68140;SDS011;54941;52.220;104.306;2023-12-20T09:13:48;32.58;;;13.02;;
68140;SDS011;54941;52.220;104.306;2023-12-20T09:16:15;24.65;;;12.40;;
68140;SDS011;54941;52.220;104.306;2023-12-20T09:18:41;31.23;;;13.32;;
68140;SDS011;54941;52.220;104.306;2023-12-20T09:21:07;31.77;;;12.70;;
68140;SDS011;54941;52.220;104.306;2023-12-20T09:23:34;26.95;;;10.85;;
68140;SDS011;54941;52.220;104.306;2023-12-20T09:26:00;27.23;;;12.75;;
68140;SDS011;54941;52.220;104.306;2023-12-20T09:28:26;25.20;;;11.40;;
68140;SDS011;54941;52.220;104.306;2023-12-20T09:30:54;23.63;;;10.30;;
68140;SDS011;54941;52.220;104.306;2023-12-20T09:33:20;35.45;;;14.65;;
68140;SDS011;54941;52.220;104.306;2023-12-20T09:35:46;33.33;;;14.30;;
68140;SDS011;54941;52.220;104.306;2023-12-20T09:38:13;25.33;;;11.18;;
68140;SDS011;54941;52.220;104.306;2023-12-20T09:40:39;36.30;;;13.60;;
68140;SDS011;54941;52.220;104.306;2023-12-20T09:43:08;24.90;;;11.93;;
68140;SDS011;54941;52.220;104.306;2023-12-20T09:45:36;34.05;;;11.73;;
68140;SDS011;54941;52.220;104.306;2023-12-20T09:48:06;32.63;;;15.43;;
68140;SDS011;54941;52.220;104.306;2023-12-20T09:50:36;31.27;;;12.85;;
68140;SDS011;54941;52.220;104.306;2023-12-20T09:53:02;42.58;;;16.35;;
68140;SDS011;54941;52.220;104.306;2023-12-20T09:55:36;33.90;;;16.00;;
68140;SDS011;54941;52.220;104.306;2023-12-20T09:58:03;32.60;;;12.90;;
68140;SDS011;54941;52.220;104.306;2023-12-20T10:00:30;25.17;;;11.93;;
68140;SDS011;54941;52.220;104.306;2023-12-20T10:02:56;27.98;;;11.60;;
68140;SDS011;54941;52.220;104.306;2023-12-20T10:05:26;36.58;;;14.65;;
68140;SDS011;54941;52.220;104.306;2023-12-20T10:07:53;36.85;;;16.15;;
68140;SDS011;54941;52.220;104.306;2023-12-20T10:10:19;45.20;;;21.17;;
68140;SDS011;54941;52.220;104.306;2023-12-20T10:13:00;37.38;;;18.25;;
68140;SDS011;54941;52.220;104.306;2023-12-20T10:15:27;43.33;;;19.58;;
68140;SDS011;54941;52.220;104.306;2023-12-20T10:17:54;41.65;;;18.30;;
68140;SDS011;54941;52.220;104.306;2023-12-20T10:20:20;42.42;;;19.40;;
68140;SDS011;54941;52.220;104.306;2023-12-20T10:22:48;46.00;;;20.92;;
68140;SDS011;54941;52.220;104.306;2023-12-20T10:25:15;46.95;;;19.77;;
68140;SDS011;54941;52.220;104.306;2023-12-20T10:27:41;37.33;;;16.23;;
68140;SDS011;54941;52.220;104.306;2023-12-20T10:30:08;41.65;;;18.13;;
68140;SDS011;54941;52.220;104.306;2023-12-20T10:32:35;39.05;;;16.58;;
68140;SDS011;54941;52.220;104.306;2023-12-20T10:35:01;49.78;;;21.92;;
68140;SDS011;54941;52.220;104.306;2023-12-20T10:37:30;51.30;;;19.02;;
68140;SDS011;54941;52.220;104.306;2023-12-20T10:39:58;44.33;;;20.05;;
68140;SDS011;54941;52.220;104.306;2023-12-20T10:42:30;51.47;;;19.55;;
68140;SDS011;54941;52.220;104.306;2023-12-20T10:44:58;47.70;;;19.27;;
68140;SDS011;54941;52.220;104.306;2023-12-20T10:47:25;42.17;;;18.77;;
68140;SDS011;54941;52.220;104.306;2023-12-20T10:49:52;47.80;;;18.92;;
68140;SDS011;54941;52.220;104.306;2023-12-20T10:52:18;43.55;;;19.90;;
68140;SDS011;54941;52.220;104.306;2023-12-20T10:54:48;42.33;;;17.77;;
68140;SDS011;54941;52.220;104.306;2023-12-20T10:57:16;43.30;;;20.27;;
68140;SDS011;54941;52.220;104.306;2023-12-20T10:59:43;42.67;;;17.67;;
68140;SDS011;54941;52.220;104.306;2023-12-20T11:02:11;39.40;;;20.77;;
68140;SDS011;54941;52.220;104.306;2023-12-20T11:04:38;48.25;;;20.40;;
68140;SDS011;54941;52.220;104.306;2023-12-20T11:07:16;48.15;;;21.30;;
68140;SDS011;54941;52.220;104.306;2023-12-20T11:09:49;48.72;;;23.95;;
68140;SDS011;54941;52.220;104.306;2023-12-20T11:12:25;40.58;;;17.98;;
68140;SDS011;54941;52.220;104.306;2023-12-20T11:15:00;37.92;;;16.75;;
68140;SDS011;54941;52.220;104.306;2023-12-20T11:17:31;35.78;;;16.85;;
68140;SDS011;54941;52.220;104.306;2023-12-20T11:20:06;42.15;;;17.05;;
68140;SDS011;54941;52.220;104.306;2023-12-20T11:22:35;42.85;;;15.45;;
68140;SDS011;54941;52.220;104.306;2023-12-20T11:25:03;29.98;;;13.52;;
68140;SDS011;54941;52.220;104.306;2023-12-20T11:27:32;29.95;;;14.38;;
68140;SDS011;54941;52.220;104.306;2023-12-20T11:29:59;34.30;;;14.00;;
68140;SDS011;54941;52.220;104.306;2023-12-20T11:32:29;35.45;;;13.63;;
68140;SDS011;54941;52.220;104.306;2023-12-20T11:34:56;27.70;;;12.60;;
68140;SDS011;54941;52.220;104.306;2023-12-20T11:37:28;22.25;;;10.75;;
68140;SDS011;54941;52.220;104.306;2023-12-20T11:39:55;26.77;;;13.23;;
68140;SDS011;54941;52.220;104.306;2023-12-20T11:42:25;36.35;;;14.57;;
68140;SDS011;54941;52.220;104.306;2023-12-20T11:44:53;27.48;;;11.00;;
68140;SDS011;54941;52.220;104.306;2023-12-20T11:47:21;27.65;;;12.70;;
68140;SDS011;54941;52.220;104.306;2023-12-20T11:49:48;33.10;;;13.20;;
68140;SDS011;54941;52.220;104.306;2023-12-20T11:52:14;23.67;;;10.88;;
68140;SDS011;54941;52.220;104.306;2023-12-20T11:54:40;19.58;;;9.00;;
68140;SDS011;54941;52.220;104.306;2023-12-20T11:57:07;22.70;;;10.98;;
68140;SDS011;54941;52.220;104.306;2023-12-20T11:59:33;23.08;;;10.13;;
68140;SDS011;54941;52.220;104.306;2023-12-20T12:02:00;32.30;;;12.10;;
68140;SDS011;54941;52.220;104.306;2023-12-20T12:04:27;24.95;;;11.85;;
68140;SDS011;54941;52.220;104.306;2023-12-20T12:06:53;29.73;;;12.50;;
68140;SDS011;54941;52.220;104.306;2023-12-20T12:09:19;27.30;;;13.02;;
68140;SDS011;54941;52.220;104.306;2023-12-20T12:11:45;23.50;;;11.15;;
68140;SDS011;54941;52.220;104.306;2023-12-20T12:14:12;23.38;;;10.38;;
68140;SDS011;54941;52.220;104.306;2023-12-20T12:16:39;24.33;;;9.82;;
68140;SDS011;54941;52.220;104.306;2023-12-20T12:19:10;34.53;;;11.43;;
68140;SDS011;54941;52.220;104.306;2023-12-20T12:21:46;26.15;;;10.55;;
68140;SDS011;54941;52.220;104.306;2023-12-20T12:24:12;30.15;;;11.75;;
68140;SDS011;54941;52.220;104.306;2023-12-20T12:26:39;28.60;;;10.57;;
68140;SDS011;54941;52.220;104.306;2023-12-20T12:29:07;22.17;;;10.70;;
68140;SDS011;54941;52.220;104.306;2023-12-20T12:31:33;27.45;;;12.85;;
68140;SDS011;54941;52.220;104.306;2023-12-20T12:33:59;23.20;;;11.35;;
68140;SDS011;54941;52.220;104.306;2023-12-20T12:36:28;28.27;;;11.25;;
68140;SDS011;54941;52.220;104.306;2023-12-20T12:38:55;33.05;;;14.13;;
68140;SDS011;54941;52.220;104.306;2023-12-20T12:41:22;23.40;;;10.98;;
68140;SDS011;54941;52.220;104.306;2023-12-20T12:43:48;25.05;;;11.10;;
68140;SDS011;54941;52.220;104.306;2023-12-20T12:46:14;23.95;;;10.40;;
68140;SDS011;54941;52.220;104.306;2023-12-20T12:48:41;25.30;;;12.23;;
68140;SDS011;54941;52.220;104.306;2023-12-20T12:51:07;26.23;;;11.20;;
68140;SDS011;54941;52.220;104.306;2023-12-20T12:53:35;25.20;;;10.68;;
68140;SDS011;54941;52.220;104.306;2023-12-20T12:56:01;29.85;;;13.52;;
68140;SDS011;54941;52.220;104.306;2023-12-20T12:58:28;20.48;;;10.32;;
68140;SDS011;54941;52.220;104.306;2023-12-20T13:00:54;30.80;;;12.95;;
68140;SDS011;54941;52.220;104.306;2023-12-20T13:03:20;30.98;;;10.82;;
68140;SDS011;54941;52.220;104.306;2023-12-20T13:05:47;30.30;;;12.82;;
68140;SDS011;54941;52.220;104.306;2023-12-20T13:08:13;25.05;;;10.90;;
68140;SDS011;54941;52.220;104.306;2023-12-20T13:10:41;27.83;;;10.75;;
68140;SDS011;54941;52.220;104.306;2023-12-20T13:13:08;23.50;;;11.27;;
68140;SDS011;54941;52.220;104.306;2023-12-20T13:15:34;33.45;;;14.55;;
68140;SDS011;54941;52.220;104.306;2023-12-20T13:18:00;34.03;;;15.90;;
68140;SDS011;54941;52.220;104.306;2023-12-20T13:20:27;35.47;;;16.67;;
68140;SDS011;54941;52.220;104.306;2023-12-20T13:22:53;29.30;;;12.05;;
68140;SDS011;54941;52.220;104.306;2023-12-20T13:25:19;23.90;;;11.00;;
68140;SDS011;54941;52.220;104.306;2023-12-20T13:27:47;27.30;;;10.43;;
68140;SDS011;54941;52.220;104.306;2023-12-20T13:30:13;29.95;;;13.57;;
68140;SDS011;54941;52.220;104.306;2023-12-20T13:32:40;29.55;;;11.25;;
68140;SDS011;54941;52.220;104.306;2023-12-20T13:35:06;32.40;;;12.27;;
68140;SDS011;54941;52.220;104.306;2023-12-20T13:37:33;29.45;;;13.10;;
68140;SDS011;54941;52.220;104.306;2023-12-20T13:40:00;27.90;;;11.65;;
68140;SDS011;54941;52.220;104.306;2023-12-20T13:42:26;26.00;;;10.98;;
68140;SDS011;54941;52.220;104.306;2023-12-20T13:44:54;32.13;;;13.38;;
68140;SDS011;54941;52.220;104.306;2023-12-20T13:47:20;25.20;;;12.68;;
68140;SDS011;54941;52.220;104.306;2023-12-20T13:49:46;26.77;;;13.38;;
68140;SDS011;54941;52.220;104.306;2023-12-20T13:52:12;33.40;;;13.18;;
68140;SDS011;54941;52.220;104.306;2023-12-20T13:54:39;33.00;;;15.63;;
68140;SDS011;54941;52.220;104.306;2023-12-20T13:57:05;41.38;;;15.45;;